createdAt,value
2019-05-22T00:02:21.178Z,99.90
2019-05-22T00:05:01.801Z,99.90
2019-05-22T00:07:38.925Z,99.90
2019-05-22T00:10:19.372Z,99.90
2019-05-22T00:12:57.453Z,99.90
2019-05-22T00:15:33.376Z,99.90
2019-05-22T00:18:10.418Z,99.90
2019-05-22T00:20:46.890Z,99.90
2019-05-22T00:23:23.602Z,99.90
2019-05-22T00:26:00.200Z,99.90
2019-05-22T00:28:36.432Z,99.90
2019-05-22T00:31:13.990Z,99.90
2019-05-22T00:33:50.553Z,99.90
2019-05-22T00:36:26.790Z,99.90
2019-05-22T00:39:03.926Z,99.90
2019-05-22T00:41:40.591Z,99.90
2019-05-22T00:44:17.947Z,99.90
2019-05-22T00:46:55.530Z,99.90
2019-05-22T00:49:33.300Z,99.90
2019-05-22T00:52:31.570Z,99.90
2019-05-22T00:55:23.192Z,99.90
2019-05-22T00:58:18.985Z,99.90
2019-05-22T01:01:01.228Z,99.90
2019-05-22T01:03:38.914Z,99.90
2019-05-22T01:06:15.908Z,99.90
2019-05-22T01:08:52.933Z,99.90
2019-05-22T01:11:29.710Z,99.90
2019-05-22T01:14:05.549Z,99.90
2019-05-22T01:16:42.931Z,99.90
2019-05-22T01:19:20.557Z,99.90
2019-05-22T01:21:56.431Z,99.90
2019-05-22T01:24:34.887Z,99.90
2019-05-22T01:27:11.437Z,99.90
2019-05-22T01:29:48.039Z,99.90
2019-05-22T01:32:29.121Z,99.90
2019-05-22T01:35:04.768Z,99.90
2019-05-22T01:37:43.519Z,99.90
2019-05-22T01:40:33.269Z,99.90
2019-05-22T01:43:11.894Z,99.90
2019-05-22T01:45:55.344Z,99.90
2019-05-22T01:48:36.219Z,99.90
2019-05-22T01:51:14.317Z,99.90
2019-05-22T01:53:51.893Z,99.90
2019-05-22T01:56:29.537Z,99.90
2019-05-22T01:59:07.388Z,99.90
2019-05-22T02:01:45.253Z,99.90
2019-05-22T02:04:21.956Z,99.90
2019-05-22T02:06:58.642Z,99.90
2019-05-22T02:09:38.001Z,99.90
2019-05-22T02:12:23.453Z,99.90
2019-05-22T02:14:59.184Z,99.90
2019-05-22T02:17:37.316Z,99.90
2019-05-22T02:20:12.672Z,99.90
2019-05-22T02:22:50.016Z,99.90
2019-05-22T02:25:25.572Z,99.90
2019-05-22T02:28:01.275Z,99.90
2019-05-22T02:30:38.552Z,99.90
2019-05-22T02:33:18.086Z,99.90
2019-05-22T02:35:53.870Z,99.90
2019-05-22T02:38:29.379Z,99.90
2019-05-22T02:41:07.843Z,99.90
2019-05-22T02:43:43.746Z,99.90
2019-05-22T02:46:19.130Z,99.90
2019-05-22T02:48:55.960Z,99.90
2019-05-22T02:51:32.936Z,99.90
2019-05-22T02:54:10.347Z,99.90
2019-05-22T02:56:45.792Z,99.90
2019-05-22T02:59:21.550Z,99.90
2019-05-22T03:01:58.297Z,99.90
2019-05-22T03:04:58.272Z,99.90
2019-05-22T03:07:33.807Z,99.90
2019-05-22T03:10:12.202Z,99.90
2019-05-22T03:12:49.670Z,99.90
2019-05-22T03:15:25.985Z,99.90
2019-05-22T03:18:05.028Z,99.90
2019-05-22T03:20:42.098Z,99.90
2019-05-22T03:23:37.854Z,99.90
2019-05-22T03:26:15.477Z,99.90
2019-05-22T03:28:51.381Z,99.90
2019-05-22T03:31:27.262Z,99.90
2019-05-22T03:34:02.718Z,99.90
2019-05-22T03:36:38.894Z,99.90
2019-05-22T03:39:16.402Z,99.90
2019-05-22T03:41:52.500Z,99.90
2019-05-22T03:44:28.565Z,99.90
2019-05-22T03:47:05.512Z,99.90
2019-05-22T03:49:43.153Z,99.90
2019-05-22T03:52:19.161Z,99.90
2019-05-22T03:54:55.878Z,99.90
2019-05-22T03:57:33.551Z,99.90
2019-05-22T04:00:12.019Z,99.90
2019-05-22T04:02:51.156Z,99.90
2019-05-22T04:05:27.796Z,99.90
2019-05-22T04:08:06.075Z,99.90
2019-05-22T04:10:59.022Z,99.90
2019-05-22T04:13:35.917Z,99.90
2019-05-22T04:16:13.838Z,99.90
2019-05-22T04:18:49.978Z,99.90
2019-05-22T04:21:25.810Z,99.90
2019-05-22T04:24:01.403Z,99.90
2019-05-22T04:26:37.599Z,99.90
2019-05-22T04:29:14.726Z,99.90
2019-05-22T04:32:03.003Z,99.90
2019-05-22T04:34:38.889Z,99.90
2019-05-22T04:37:15.797Z,99.90
2019-05-22T04:39:54.970Z,99.90
2019-05-22T04:42:30.810Z,99.90
2019-05-22T04:45:12.307Z,99.90
2019-05-22T04:47:58.625Z,99.90
2019-05-22T04:50:35.251Z,99.90
2019-05-22T04:53:10.604Z,99.90
2019-05-22T04:55:46.290Z,99.90
2019-05-22T04:58:30.387Z,99.90
2019-05-22T05:01:05.733Z,99.90
2019-05-22T05:03:41.095Z,99.90
2019-05-22T05:06:18.451Z,99.90
2019-05-22T05:08:54.662Z,99.90
2019-05-22T05:11:30.259Z,99.90
2019-05-22T05:14:06.922Z,99.90
2019-05-22T05:16:43.345Z,99.90
2019-05-22T05:19:19.092Z,99.90
2019-05-22T05:21:54.564Z,99.90
2019-05-22T05:24:29.932Z,99.90
2019-05-22T05:27:06.985Z,99.90
2019-05-22T05:29:42.312Z,99.90
2019-05-22T05:32:20.894Z,99.90
2019-05-22T05:35:07.244Z,99.90
2019-05-22T05:37:43.442Z,99.90
2019-05-22T05:40:40.306Z,99.90
2019-05-22T05:43:21.202Z,99.90
2019-05-22T05:45:56.734Z,99.90
2019-05-22T05:48:33.556Z,99.90
2019-05-22T05:51:36.345Z,99.90
2019-05-22T05:54:23.332Z,99.90
2019-05-22T05:57:13.420Z,99.90
2019-05-22T05:59:49.660Z,99.90
2019-05-22T06:02:27.529Z,99.90
2019-05-22T06:05:03.792Z,99.90
2019-05-22T06:07:39.381Z,99.90
2019-05-22T06:11:04.371Z,99.90
2019-05-22T06:13:39.981Z,99.90
2019-05-22T06:17:07.015Z,99.90
2019-05-22T06:19:45.362Z,99.90
2019-05-22T06:22:21.688Z,99.90
2019-05-22T06:25:01.871Z,99.90
2019-05-22T06:27:44.479Z,99.90
2019-05-22T06:30:46.353Z,99.90
2019-05-22T06:33:39.653Z,99.90
2019-05-22T06:36:17.629Z,99.90
2019-05-22T06:39:20.147Z,99.90
2019-05-22T06:41:57.147Z,99.90
2019-05-22T06:44:35.151Z,99.90
2019-05-22T06:47:19.630Z,99.90
2019-05-22T06:49:54.747Z,99.90
2019-05-22T06:52:28.930Z,99.90
2019-05-22T06:55:05.762Z,99.90
2019-05-22T06:57:41.306Z,99.90
2019-05-22T07:00:23.236Z,99.90
2019-05-22T07:03:04.136Z,99.90
2019-05-22T07:05:43.664Z,99.90
2019-05-22T07:08:22.667Z,99.90
2019-05-22T07:10:58.274Z,99.90
2019-05-22T07:13:34.216Z,99.90
2019-05-22T07:16:09.772Z,99.90
2019-05-22T07:18:45.883Z,99.90
2019-05-22T07:21:33.427Z,99.90
2019-05-22T07:23:58.813Z,99.90
2019-05-22T07:26:37.300Z,99.90
2019-05-22T07:29:13.319Z,99.90
2019-05-22T07:31:48.712Z,99.90
2019-05-22T07:34:25.180Z,99.90
2019-05-22T07:37:05.559Z,99.90
2019-05-22T07:39:40.974Z,99.90
2019-05-22T07:42:16.418Z,99.90
2019-05-22T07:44:53.118Z,99.90
2019-05-22T07:47:29.691Z,99.90
2019-05-22T07:50:07.034Z,99.90
2019-05-22T07:52:45.009Z,99.90
2019-05-22T07:55:21.960Z,99.90
2019-05-22T07:58:11.734Z,99.90
2019-05-22T08:01:00.677Z,99.90
2019-05-22T08:03:38.239Z,99.90
2019-05-22T08:06:20.781Z,99.90
2019-05-22T08:09:00.018Z,99.50
2019-05-22T08:11:37.017Z,99.90
2019-05-22T08:14:13.119Z,99.60
2019-05-22T08:16:49.153Z,99.90
2019-05-22T08:19:26.208Z,99.30
2019-05-22T08:22:07.240Z,98.50
2019-05-22T08:24:41.414Z,99.90
2019-05-22T08:27:20.214Z,99.80
2019-05-22T08:29:57.115Z,99.90
2019-05-22T08:32:33.665Z,99.40
2019-05-22T08:35:12.358Z,98.10
2019-05-22T08:37:53.229Z,98.10
2019-05-22T08:40:29.665Z,98.60
2019-05-22T08:43:06.303Z,97.60
2019-05-22T08:45:42.921Z,97.90
2019-05-22T08:48:23.877Z,98.50
2019-05-22T08:51:01.360Z,98.40
2019-05-22T08:53:46.544Z,95.20
2019-05-22T08:56:15.344Z,95.90
2019-05-22T08:58:52.236Z,97.60
2019-05-22T09:01:28.676Z,97.70
2019-05-22T09:04:04.342Z,96.00
2019-05-22T09:06:40.111Z,95.30
2019-05-22T09:09:18.483Z,96.80
2019-05-22T09:11:54.139Z,95.00
2019-05-22T09:14:29.611Z,94.50
2019-05-22T09:17:06.821Z,94.30
2019-05-22T09:19:42.618Z,96.70
2019-05-22T09:22:18.164Z,96.40
2019-05-22T09:24:53.600Z,93.10
2019-05-22T09:27:33.450Z,94.30
2019-05-22T09:30:10.890Z,92.10
2019-05-22T09:32:47.790Z,93.40
2019-05-22T09:35:23.615Z,92.80
2019-05-22T09:37:58.968Z,93.10
2019-05-22T09:40:34.529Z,93.20
2019-05-22T09:43:09.947Z,91.50
2019-05-22T09:45:45.322Z,92.10
2019-05-22T09:48:21.084Z,90.00
2019-05-22T09:50:56.865Z,89.70
2019-05-22T09:53:40.175Z,90.60
2019-05-22T09:56:16.040Z,91.10
2019-05-22T09:58:52.167Z,88.10
2019-05-22T10:01:27.818Z,86.90
2019-05-22T10:04:05.521Z,85.40
2019-05-22T10:06:41.370Z,87.70
2019-05-22T10:09:16.924Z,87.70
2019-05-22T10:11:52.652Z,88.80
2019-05-22T10:14:28.477Z,90.10
2019-05-22T10:17:03.922Z,90.30
2019-05-22T10:19:39.331Z,85.70
2019-05-22T10:22:30.884Z,85.20
2019-05-22T10:25:15.607Z,83.60
2019-05-22T10:27:43.836Z,81.20
2019-05-22T10:30:23.351Z,87.90
2019-05-22T10:32:58.750Z,84.30
2019-05-22T10:35:35.014Z,85.50
2019-05-22T10:38:11.102Z,85.00
2019-05-22T10:40:46.406Z,85.10
2019-05-22T10:43:21.945Z,82.10
2019-05-22T10:45:58.115Z,81.00
2019-05-22T10:48:34.534Z,81.70
2019-05-22T10:51:10.279Z,80.80
2019-05-22T10:53:45.708Z,80.40
2019-05-22T10:56:21.362Z,76.30
2019-05-22T10:58:56.763Z,81.30
2019-05-22T11:01:37.267Z,78.10
2019-05-22T11:04:11.827Z,77.30
2019-05-22T11:06:48.315Z,73.00
2019-05-22T11:09:23.923Z,78.10
2019-05-22T11:12:01.197Z,76.20
2019-05-22T11:14:40.624Z,80.50
2019-05-22T11:17:16.067Z,76.60
2019-05-22T11:19:51.464Z,79.20
2019-05-22T11:22:27.173Z,78.20
2019-05-22T11:25:02.551Z,76.50
2019-05-22T11:27:38.078Z,74.90
2019-05-22T11:30:14.360Z,73.20
2019-05-22T11:32:49.894Z,74.10
2019-05-22T11:35:25.485Z,72.00
2019-05-22T11:38:00.906Z,74.30
2019-05-22T11:40:40.961Z,78.20
2019-05-22T11:43:16.496Z,78.70
2019-05-22T11:45:52.483Z,76.70
2019-05-22T11:48:27.848Z,79.40
2019-05-22T11:51:03.632Z,75.90
2019-05-22T11:53:38.936Z,78.90
2019-05-22T11:56:14.229Z,76.90
2019-05-22T11:58:52.823Z,74.90
2019-05-22T12:01:28.423Z,71.60
2019-05-22T12:04:05.139Z,70.20
2019-05-22T12:06:40.809Z,75.10
2019-05-22T12:09:16.570Z,76.80
2019-05-22T12:11:52.643Z,78.00
2019-05-22T12:14:28.419Z,82.20
2019-05-22T12:17:04.825Z,81.40
2019-05-22T12:19:40.954Z,82.70
2019-05-22T12:22:19.814Z,78.00
2019-05-22T12:24:54.124Z,84.10
2019-05-22T12:27:31.107Z,86.60
2019-05-22T12:30:07.578Z,79.60
2019-05-22T12:32:46.714Z,79.20
2019-05-22T12:35:24.106Z,79.00
2019-05-22T12:38:17.199Z,79.50
2019-05-22T12:40:53.483Z,84.30
2019-05-22T12:43:36.009Z,83.90
2019-05-22T12:46:13.279Z,82.20
2019-05-22T12:48:48.629Z,79.50
2019-05-22T12:51:24.109Z,76.40
2019-05-22T12:53:59.585Z,80.70
2019-05-22T12:56:35.260Z,81.10
2019-05-22T12:59:11.336Z,78.50
2019-05-22T13:01:47.310Z,79.80
2019-05-22T13:04:24.551Z,81.30
2019-05-22T13:07:00.610Z,79.20
2019-05-22T13:09:36.351Z,78.30
2019-05-22T13:12:12.739Z,75.50
2019-05-22T13:14:48.811Z,69.10
2019-05-22T13:17:25.921Z,69.90
2019-05-22T13:20:02.815Z,71.20
2019-05-22T13:22:41.125Z,70.50
2019-05-22T13:25:17.522Z,74.80
2019-05-22T13:27:53.437Z,79.40
2019-05-22T13:30:29.063Z,74.80
2019-05-22T13:33:11.220Z,71.30
2019-05-22T13:35:50.323Z,73.50
2019-05-22T13:38:27.550Z,70.40
2019-05-22T13:41:03.964Z,65.40
2019-05-22T13:43:39.541Z,70.10
2019-05-22T13:46:50.019Z,70.20
2019-05-22T13:49:26.467Z,76.50
2019-05-22T13:52:01.863Z,72.70
2019-05-22T13:54:37.317Z,69.70
2019-05-22T13:57:13.680Z,70.20
2019-05-22T13:59:49.143Z,68.70
2019-05-22T14:02:27.313Z,72.60
2019-05-22T14:05:03.060Z,75.00
2019-05-22T14:07:38.523Z,75.40
2019-05-22T14:10:14.033Z,75.70
2019-05-22T14:12:49.603Z,68.30
2019-05-22T14:15:25.588Z,65.60
2019-05-22T14:18:02.013Z,66.40
2019-05-22T14:20:37.662Z,72.50
2019-05-22T14:23:13.334Z,72.20
2019-05-22T14:25:49.654Z,62.40
2019-05-22T14:28:27.458Z,64.20
2019-05-22T14:31:02.898Z,63.80
2019-05-22T14:33:40.507Z,59.10
2019-05-22T14:36:16.496Z,64.90
2019-05-22T14:38:53.221Z,58.50
2019-05-22T14:41:33.033Z,58.20
2019-05-22T14:44:08.592Z,58.40
2019-05-22T14:46:43.950Z,56.80
2019-05-22T14:49:20.953Z,55.90
2019-05-22T14:51:56.872Z,55.40
2019-05-22T14:54:32.866Z,56.70
2019-05-22T14:57:08.928Z,59.90
2019-05-22T14:59:44.294Z,59.50
2019-05-22T15:02:20.808Z,58.50
2019-05-22T15:04:56.372Z,59.00
2019-05-22T15:07:31.778Z,63.10
2019-05-22T15:10:08.105Z,65.70
2019-05-22T15:12:43.476Z,60.30
2019-05-22T15:15:19.333Z,64.00
2019-05-22T15:17:54.760Z,63.90
2019-05-22T15:20:42.155Z,66.50
2019-05-22T15:23:17.639Z,62.70
2019-05-22T15:25:53.341Z,63.40
2019-05-22T15:28:28.881Z,64.70
2019-05-22T15:31:04.395Z,65.80
2019-05-22T15:33:40.466Z,63.20
2019-05-22T15:36:19.214Z,69.10
2019-05-22T15:38:55.132Z,66.30
2019-05-22T15:41:31.435Z,65.80
2019-05-22T15:44:08.064Z,65.30
2019-05-22T15:46:45.982Z,58.50
2019-05-22T15:49:25.839Z,67.30
2019-05-22T15:52:02.067Z,59.70
2019-05-22T15:54:38.655Z,60.80
2019-05-22T15:57:15.767Z,55.50
2019-05-22T15:59:52.070Z,56.10
2019-05-22T16:02:28.374Z,60.90
2019-05-22T16:05:05.744Z,60.50
2019-05-22T16:07:41.732Z,59.10
2019-05-22T16:10:18.809Z,66.90
2019-05-22T16:12:56.296Z,71.80
2019-05-22T16:15:33.402Z,66.00
2019-05-22T16:18:12.189Z,62.80
2019-05-22T16:20:48.674Z,67.00
2019-05-22T16:23:25.338Z,66.60
2019-05-22T16:26:01.902Z,68.20
2019-05-22T16:28:40.889Z,66.80
2019-05-22T16:31:18.316Z,68.60
2019-05-22T16:33:54.341Z,64.10
2019-05-22T16:36:30.997Z,61.20
2019-05-22T16:39:08.254Z,61.80
2019-05-22T16:41:47.410Z,63.60
2019-05-22T16:44:23.308Z,61.70
2019-05-22T16:46:59.140Z,65.00
2019-05-22T16:49:38.016Z,59.10
2019-05-22T16:52:15.555Z,61.90
2019-05-22T16:54:51.261Z,59.50
2019-05-22T16:57:27.563Z,56.20
2019-05-22T17:00:04.982Z,59.90
2019-05-22T17:02:42.077Z,57.20
2019-05-22T17:05:19.264Z,58.40
2019-05-22T17:07:54.689Z,61.00
2019-05-22T17:10:30.398Z,60.50
2019-05-22T17:13:12.143Z,62.10
2019-05-22T17:15:46.411Z,57.00
2019-05-22T17:18:22.093Z,51.70
2019-05-22T17:20:58.979Z,54.30
2019-05-22T17:23:34.652Z,52.50
2019-05-22T17:26:11.426Z,53.80
2019-05-22T17:28:48.026Z,52.60
2019-05-22T17:31:24.899Z,53.60
2019-05-22T17:34:06.207Z,53.10
2019-05-22T17:36:42.326Z,54.40
2019-05-22T17:39:18.068Z,57.10
2019-05-22T17:41:56.634Z,57.10
2019-05-22T17:44:33.404Z,59.30
2019-05-22T17:47:10.463Z,58.40
2019-05-22T17:49:45.953Z,58.90
2019-05-22T17:52:23.337Z,54.30
2019-05-22T17:54:59.590Z,58.50
2019-05-22T17:57:34.996Z,60.40
2019-05-22T18:00:17.505Z,63.90
2019-05-22T18:02:52.911Z,62.30
2019-05-22T18:05:33.284Z,60.80
2019-05-22T18:08:09.901Z,64.50
2019-05-22T18:10:49.627Z,63.20
2019-05-22T18:13:25.576Z,60.20
2019-05-22T18:16:04.258Z,62.20
2019-05-22T18:18:38.098Z,60.20
2019-05-22T18:21:13.738Z,61.10
2019-05-22T18:23:49.496Z,62.60
2019-05-22T18:26:25.827Z,60.20
2019-05-22T18:29:09.849Z,64.00
2019-05-22T18:31:42.307Z,69.70
2019-05-22T18:34:17.889Z,68.20
2019-05-22T18:36:53.208Z,65.80
2019-05-22T18:39:29.357Z,67.10
2019-05-22T18:42:04.888Z,70.20
2019-05-22T18:44:40.352Z,74.80
2019-05-22T18:47:15.904Z,69.60
2019-05-22T18:49:51.401Z,70.80
2019-05-22T18:52:41.044Z,71.60
2019-05-22T18:55:10.839Z,70.00
2019-05-22T18:57:46.515Z,74.50
2019-05-22T19:00:24.669Z,67.90
2019-05-22T19:03:00.094Z,67.80
2019-05-22T19:05:37.213Z,71.00
2019-05-22T19:08:12.658Z,74.60
2019-05-22T19:10:48.401Z,71.30
2019-05-22T19:13:23.781Z,68.50
2019-05-22T19:15:59.828Z,73.00
2019-05-22T19:18:36.310Z,73.90
2019-05-22T19:21:12.075Z,69.50
2019-05-22T19:23:47.640Z,70.10
2019-05-22T19:26:23.209Z,72.80
2019-05-22T19:28:58.967Z,71.90
2019-05-22T19:31:34.533Z,76.10
2019-05-22T19:34:13.876Z,78.40
2019-05-22T19:36:49.264Z,75.10
2019-05-22T19:39:24.984Z,75.00
2019-05-22T19:42:04.524Z,78.60
2019-05-22T19:44:37.522Z,78.20
2019-05-22T19:47:14.401Z,80.10
2019-05-22T19:49:50.216Z,77.00
2019-05-22T19:52:40.474Z,83.20
2019-05-22T19:55:07.112Z,80.90
2019-05-22T19:57:43.492Z,81.20
2019-05-22T20:00:19.279Z,80.80
2019-05-22T20:02:55.711Z,80.10
2019-05-22T20:05:33.369Z,81.20
2019-05-22T20:08:10.440Z,80.60
2019-05-22T20:10:46.007Z,83.20
2019-05-22T20:13:23.732Z,85.50
2019-05-22T20:15:59.340Z,83.00
2019-05-22T20:18:34.968Z,83.30
2019-05-22T20:21:10.582Z,86.70
2019-05-22T20:23:46.624Z,88.70
2019-05-22T20:26:22.354Z,79.90
2019-05-22T20:28:58.040Z,86.80
2019-05-22T20:31:33.372Z,84.80
2019-05-22T20:34:09.003Z,87.70
2019-05-22T20:36:45.350Z,84.20
2019-05-22T20:39:22.268Z,89.00
2019-05-22T20:41:57.900Z,89.20
2019-05-22T20:44:36.322Z,90.70
2019-05-22T20:47:15.946Z,90.30
2019-05-22T20:49:57.543Z,90.50
2019-05-22T20:52:37.831Z,90.10
2019-05-22T20:55:19.398Z,90.60
2019-05-22T20:57:56.288Z,91.60
2019-05-22T21:00:35.105Z,91.70
2019-05-22T21:03:22.339Z,91.40
2019-05-22T21:06:00.695Z,92.70
2019-05-22T21:08:41.963Z,91.30
2019-05-22T21:11:24.903Z,91.10
2019-05-22T21:14:05.431Z,90.60
2019-05-22T21:16:43.907Z,91.60
2019-05-22T21:19:19.424Z,92.10
2019-05-22T21:21:59.634Z,91.60
2019-05-22T21:24:40.932Z,93.40
2019-05-22T21:27:23.008Z,92.30
2019-05-22T21:30:00.974Z,92.80
2019-05-22T21:32:39.047Z,92.90
2019-05-22T21:35:21.765Z,92.70
2019-05-22T21:37:58.576Z,92.50
2019-05-22T21:40:38.029Z,94.00
2019-05-22T21:43:17.039Z,93.70
2019-05-22T21:45:52.413Z,93.90
2019-05-22T21:48:33.895Z,94.50
2019-05-22T21:51:09.731Z,95.10
2019-05-22T21:53:45.942Z,93.70
2019-05-22T21:56:21.302Z,94.80
2019-05-22T21:58:59.621Z,95.40
2019-05-22T22:01:40.280Z,95.70
2019-05-22T22:04:29.117Z,96.00
2019-05-22T22:07:05.187Z,96.00
2019-05-22T22:09:42.664Z,96.30
2019-05-22T22:12:22.149Z,96.00
2019-05-22T22:14:57.913Z,96.10
2019-05-22T22:17:34.871Z,96.70
2019-05-22T22:20:11.644Z,96.00
2019-05-22T22:22:49.032Z,96.30
2019-05-22T22:25:25.365Z,95.40
2019-05-22T22:28:01.507Z,96.20
2019-05-22T22:30:44.341Z,96.50
2019-05-22T22:33:23.515Z,96.70
2019-05-22T22:35:59.562Z,98.10
2019-05-22T22:38:36.371Z,97.40
2019-05-22T22:41:14.054Z,98.40
2019-05-22T22:43:50.063Z,96.70
2019-05-22T22:46:40.025Z,98.00
2019-05-22T22:49:18.621Z,96.80
2019-05-22T22:51:55.826Z,98.00
2019-05-22T22:54:33.307Z,98.50
2019-05-22T22:57:09.590Z,98.00
2019-05-22T22:59:44.793Z,98.50
2019-05-22T23:02:23.740Z,98.70
2019-05-22T23:04:59.938Z,99.70
2019-05-22T23:07:37.372Z,99.90
2019-05-22T23:10:14.579Z,99.70
2019-05-22T23:12:53.041Z,99.50
2019-05-22T23:15:28.733Z,99.90
2019-05-22T23:18:04.314Z,99.50
2019-05-22T23:20:38.965Z,99.90
2019-05-22T23:23:13.806Z,99.30
2019-05-22T23:25:49.594Z,99.50
2019-05-22T23:28:34.687Z,99.10
2019-05-22T23:31:02.487Z,99.10
2019-05-22T23:33:39.070Z,99.50
2019-05-22T23:36:16.481Z,99.70
2019-05-22T23:38:52.984Z,99.90
2019-05-22T23:41:30.633Z,99.50
2019-05-22T23:44:07.532Z,99.90
2019-05-22T23:46:43.587Z,99.30
2019-05-22T23:49:19.305Z,99.80
2019-05-22T23:51:54.711Z,99.90
2019-05-22T23:54:30.831Z,99.70
2019-05-22T23:57:08.062Z,99.90
2019-05-22T23:59:45.608Z,99.10
